createdAt,value
2017-10-27T03:31:38.210Z,30.60
2017-10-27T03:34:05.794Z,25.25
2017-10-27T03:36:33.377Z,27.87
2017-10-27T03:39:01.010Z,27.25
2017-10-27T03:41:28.594Z,17.45
2017-10-27T03:43:56.174Z,9.93
2017-10-27T03:46:23.822Z,8.45
2017-10-27T03:48:51.406Z,5.37
2017-10-27T03:51:19.749Z,3.75
2017-10-27T03:53:47.346Z,4.37
2017-10-27T03:56:15.710Z,4.20
2017-10-27T03:58:43.286Z,3.97
2017-10-27T04:01:11.631Z,3.95
2017-10-27T04:03:39.418Z,5.50
2017-10-27T04:06:07.798Z,5.28
2017-10-27T04:08:36.146Z,4.97
2017-10-27T04:11:05.258Z,5.32
2017-10-27T04:13:32.950Z,4.57
2017-10-27T04:16:00.556Z,5.40
2017-10-27T04:18:28.176Z,4.90
2017-10-27T04:20:55.750Z,5.30
2017-10-27T04:23:23.335Z,5.05
2017-10-27T04:25:51.027Z,5.70
2017-10-27T04:28:19.378Z,6.35
2017-10-27T04:30:47.062Z,6.30
2017-10-27T04:33:15.543Z,6.30
2017-10-27T04:35:43.934Z,6.97
2017-10-27T04:38:11.614Z,7.12
2017-10-27T04:40:39.442Z,8.20
2017-10-27T04:43:07.790Z,8.52
2017-10-27T04:45:35.386Z,7.90
2017-10-27T04:48:03.735Z,8.80
2017-10-27T04:50:31.471Z,8.35
2017-10-27T04:52:59.085Z,8.15
2017-10-27T04:55:26.678Z,8.70
2017-10-27T04:57:54.347Z,9.73
2017-10-27T05:00:21.950Z,9.93
2017-10-27T05:02:50.341Z,12.18
2017-10-27T05:05:18.772Z,10.25
2017-10-27T05:07:46.527Z,10.73
2017-10-27T05:10:14.122Z,11.57
2017-10-27T05:12:41.704Z,9.68
2017-10-27T05:15:10.174Z,9.70
2017-10-27T05:17:44.138Z,11.98
2017-10-27T05:20:17.403Z,10.70
2017-10-27T05:22:50.714Z,11.77
2017-10-27T05:25:18.328Z,12.95
2017-10-27T05:27:46.701Z,15.25
2017-10-27T05:30:15.087Z,13.62
2017-10-27T05:32:43.563Z,13.88
2017-10-27T05:35:11.914Z,14.40
2017-10-27T05:37:39.514Z,13.77
2017-10-27T05:40:07.093Z,16.27
2017-10-27T05:42:34.818Z,15.00
2017-10-27T05:45:03.190Z,16.77
2017-10-27T05:47:31.534Z,17.67
2017-10-27T05:49:59.224Z,18.00
2017-10-27T05:52:26.801Z,18.00
2017-10-27T05:54:55.147Z,19.42
2017-10-27T05:57:22.754Z,19.80
2017-10-27T05:59:50.342Z,22.00
2017-10-27T06:02:17.930Z,22.98
2017-10-27T06:04:45.562Z,22.23
2017-10-27T06:07:13.138Z,23.83
2017-10-27T06:09:42.226Z,25.37
2017-10-27T06:12:09.845Z,24.10
2017-10-27T06:14:37.470Z,23.55
2017-10-27T06:17:05.814Z,24.80
2017-10-27T06:19:33.510Z,25.75
2017-10-27T06:22:01.926Z,28.08
2017-10-27T06:24:29.502Z,30.40
2017-10-27T06:26:57.085Z,32.22
2017-10-27T06:29:24.701Z,31.08
2017-10-27T06:31:52.281Z,32.42
2017-10-27T06:34:19.912Z,34.10
2017-10-27T06:36:47.497Z,35.08
2017-10-27T06:39:15.125Z,35.00
2017-10-27T06:41:42.729Z,31.00
2017-10-27T06:44:10.301Z,30.73
2017-10-27T06:46:38.045Z,33.72
2017-10-27T06:49:05.663Z,30.73
2017-10-27T06:51:33.241Z,29.58
2017-10-27T06:54:00.822Z,31.42
2017-10-27T06:56:28.425Z,29.50
2017-10-27T06:58:56.778Z,30.73
2017-10-27T07:01:24.541Z,29.37
2017-10-27T07:03:52.125Z,27.10
2017-10-27T07:06:20.499Z,24.20
2017-10-27T07:08:49.021Z,24.45
2017-10-27T07:11:16.610Z,26.05
2017-10-27T07:13:44.294Z,25.52
2017-10-27T07:16:12.675Z,22.60
2017-10-27T07:18:41.023Z,21.55
2017-10-27T07:21:10.251Z,23.60
2017-10-27T07:23:38.602Z,18.77
2017-10-27T07:26:06.193Z,19.87
2017-10-27T07:28:33.842Z,19.50
2017-10-27T07:31:02.218Z,20.10
2017-10-27T07:33:30.603Z,20.90
2017-10-27T07:35:59.078Z,21.50
2017-10-27T07:38:27.462Z,22.77
2017-10-27T07:40:55.832Z,20.48
2017-10-27T07:43:24.314Z,18.87
2017-10-27T07:45:52.661Z,18.85
2017-10-27T07:48:20.242Z,16.50
2017-10-27T07:50:48.629Z,15.05
2017-10-27T07:53:16.997Z,9.18
2017-10-27T07:55:45.346Z,8.63
2017-10-27T07:58:13.033Z,9.35
2017-10-27T08:00:41.519Z,9.25
2017-10-27T08:03:09.872Z,10.30
2017-10-27T08:05:38.966Z,10.70
2017-10-27T08:08:06.583Z,12.25
2017-10-27T08:10:34.209Z,11.10
2017-10-27T08:13:02.688Z,13.02
2017-10-27T08:15:31.077Z,9.45
2017-10-27T08:17:59.422Z,11.15
2017-10-27T08:20:27.097Z,9.77
2017-10-27T08:22:55.481Z,9.88
2017-10-27T08:25:23.822Z,9.27
2017-10-27T08:27:51.402Z,10.32
2017-10-27T08:30:19.018Z,10.05
2017-10-27T08:32:46.593Z,7.25
2017-10-27T08:35:14.174Z,6.43
2017-10-27T08:37:41.782Z,6.43
2017-10-27T08:40:09.409Z,5.85
2017-10-27T08:42:37.795Z,5.50
2017-10-27T08:45:06.165Z,5.20
2017-10-27T08:47:34.555Z,5.75
2017-10-27T08:50:02.131Z,5.18
2017-10-27T08:52:29.710Z,3.33
2017-10-27T08:54:57.326Z,3.80
2017-10-27T08:57:25.666Z,2.72
2017-10-27T08:59:53.242Z,2.95
2017-10-27T09:02:20.838Z,2.17
2017-10-27T09:04:48.470Z,1.98
2017-10-27T09:07:16.814Z,2.22
2017-10-27T09:09:44.510Z,2.12
2017-10-27T09:12:12.899Z,2.08
2017-10-27T09:14:40.478Z,2.65
2017-10-27T09:17:08.063Z,3.00
2017-10-27T09:19:35.772Z,2.45
2017-10-27T09:22:04.114Z,3.25
2017-10-27T09:24:31.694Z,4.30
2017-10-27T09:27:00.062Z,4.85
2017-10-27T09:29:27.742Z,4.95
2017-10-27T09:31:56.082Z,5.40
2017-10-27T09:34:23.658Z,5.65
2017-10-27T09:36:51.274Z,5.78
2017-10-27T09:39:18.892Z,4.95
2017-10-27T09:41:47.271Z,5.97
2017-10-27T09:44:15.746Z,4.80
2017-10-27T09:46:44.095Z,5.68
2017-10-27T09:49:11.690Z,4.22
2017-10-27T09:51:40.054Z,4.32
2017-10-27T09:54:08.411Z,4.97
2017-10-27T09:56:36.033Z,5.20
2017-10-27T09:59:03.659Z,5.57
2017-10-27T10:01:32.005Z,5.37
2017-10-27T10:03:59.622Z,4.50
2017-10-27T10:06:27.204Z,4.97
2017-10-27T10:08:54.805Z,3.95
2017-10-27T10:11:22.475Z,4.03
2017-10-27T10:13:50.821Z,4.37
2017-10-27T10:16:18.509Z,3.80
2017-10-27T10:18:46.873Z,3.90
2017-10-27T10:21:14.454Z,3.22
2017-10-27T10:23:42.817Z,2.83
2017-10-27T10:26:11.198Z,2.67
2017-10-27T10:28:39.538Z,3.17
2017-10-27T10:31:07.254Z,4.05
2017-10-27T10:33:34.850Z,4.28
2017-10-27T10:36:02.436Z,5.10
2017-10-27T10:38:30.033Z,3.37
2017-10-27T10:40:57.606Z,3.92
2017-10-27T10:43:25.181Z,3.92
2017-10-27T10:45:52.801Z,4.03
2017-10-27T10:48:21.270Z,3.15
2017-10-27T10:50:49.650Z,4.30
2017-10-27T10:53:18.088Z,4.00
2017-10-27T10:55:45.662Z,3.75
2017-10-27T10:58:14.010Z,3.40
2017-10-27T11:00:41.634Z,3.65
2017-10-27T11:03:09.994Z,3.35
2017-10-27T11:05:38.334Z,4.03
2017-10-27T11:08:06.021Z,3.40
2017-10-27T11:10:33.603Z,3.60
2017-10-27T11:13:01.989Z,3.22
2017-10-27T11:15:29.580Z,2.97
2017-10-27T11:17:57.166Z,3.15
2017-10-27T11:20:24.968Z,3.75
2017-10-27T11:22:52.550Z,3.65
2017-10-27T11:25:20.138Z,3.25
2017-10-27T11:27:47.758Z,3.30
2017-10-27T11:30:15.353Z,3.75
2017-10-27T11:32:42.945Z,3.15
2017-10-27T11:35:11.330Z,3.25
2017-10-27T11:37:39.674Z,2.53
2017-10-27T11:40:07.314Z,2.50
2017-10-27T11:42:34.902Z,3.60
2017-10-27T11:45:02.592Z,3.50
2017-10-27T11:47:30.995Z,3.08
2017-10-27T11:49:58.574Z,3.22
2017-10-27T11:52:26.160Z,3.35
2017-10-27T11:54:53.835Z,2.90
2017-10-27T11:57:22.191Z,3.15
2017-10-27T11:59:49.885Z,3.47
2017-10-27T12:02:18.252Z,3.65
2017-10-27T12:04:46.626Z,2.03
2017-10-27T12:07:15.059Z,2.60
2017-10-27T12:09:42.638Z,2.60
2017-10-27T12:12:10.272Z,3.03
2017-10-27T12:14:37.947Z,3.20
2017-10-27T12:17:05.552Z,2.83
2017-10-27T12:19:33.940Z,2.87
2017-10-27T12:22:01.599Z,2.95
2017-10-27T12:24:29.942Z,2.55
2017-10-27T12:26:58.374Z,2.95
2017-10-27T12:29:25.954Z,2.33
2017-10-27T12:31:53.530Z,2.80
2017-10-27T12:34:21.130Z,2.03
2017-10-27T12:36:49.544Z,1.90
2017-10-27T12:39:17.134Z,2.55
2017-10-27T12:41:44.761Z,2.20
2017-10-27T12:44:12.342Z,2.83
2017-10-27T12:46:40.039Z,2.05
2017-10-27T12:49:08.410Z,2.55
2017-10-27T12:51:36.761Z,2.45
2017-10-27T12:54:04.374Z,2.55
2017-10-27T12:56:31.950Z,3.25
2017-10-27T12:58:59.565Z,3.42
2017-10-27T13:01:27.991Z,2.83
2017-10-27T13:03:55.606Z,3.67
2017-10-27T13:06:23.945Z,2.60
2017-10-27T13:08:51.593Z,2.45
2017-10-27T13:11:19.166Z,2.47
2017-10-27T13:13:46.742Z,2.60
2017-10-27T13:16:15.981Z,2.83
2017-10-27T13:18:43.571Z,1.70
2017-10-27T13:21:11.174Z,2.00
2017-10-27T13:23:39.554Z,2.50
2017-10-27T13:26:07.901Z,1.85
2017-10-27T13:28:35.574Z,2.05
2017-10-27T13:31:03.961Z,1.98
2017-10-27T13:33:32.354Z,1.75
2017-10-27T13:35:59.935Z,1.75
2017-10-27T13:38:27.515Z,1.80
2017-10-27T13:40:55.217Z,1.77
2017-10-27T13:43:23.562Z,2.00
2017-10-27T13:45:51.147Z,2.37
2017-10-27T13:48:19.570Z,2.00
2017-10-27T13:50:47.153Z,2.17
2017-10-27T13:53:14.747Z,1.90
2017-10-27T13:55:43.226Z,2.00
2017-10-27T13:58:11.573Z,1.98
2017-10-27T14:00:39.157Z,1.60
2017-10-27T14:03:07.522Z,1.92
2017-10-27T14:05:35.208Z,1.95
2017-10-27T14:08:03.686Z,2.55
2017-10-27T14:10:32.025Z,2.25
2017-10-27T14:12:59.605Z,2.33
2017-10-27T14:15:27.226Z,2.25
2017-10-27T14:17:54.835Z,2.37
2017-10-27T14:20:23.178Z,2.65
2017-10-27T14:22:50.926Z,2.87
2017-10-27T14:25:18.534Z,2.53
2017-10-27T14:27:46.922Z,2.58
2017-10-27T14:30:15.259Z,2.28
2017-10-27T14:32:42.831Z,2.00
2017-10-27T14:35:10.512Z,2.30
2017-10-27T14:37:38.859Z,2.35
2017-10-27T14:40:06.447Z,1.90
2017-10-27T14:42:34.812Z,1.70
2017-10-27T14:45:02.386Z,2.22
2017-10-27T14:47:30.871Z,2.35
2017-10-27T14:49:58.456Z,2.08
2017-10-27T14:52:26.124Z,2.35
2017-10-27T14:54:53.839Z,2.00
2017-10-27T14:57:22.182Z,2.10
2017-10-27T14:59:49.757Z,2.37
2017-10-27T15:02:17.392Z,2.08
2017-10-27T15:04:44.989Z,1.95
2017-10-27T15:07:13.370Z,2.83
2017-10-27T15:09:42.156Z,2.20
2017-10-27T15:12:09.786Z,1.95
2017-10-27T15:14:37.418Z,2.53
2017-10-27T15:17:05.182Z,2.08
2017-10-27T15:19:32.766Z,2.03
2017-10-27T15:22:00.393Z,2.92
2017-10-27T15:24:27.982Z,3.22
2017-10-27T15:26:55.562Z,3.35
2017-10-27T15:29:23.199Z,2.97
2017-10-27T15:31:50.774Z,3.00
2017-10-27T15:34:18.363Z,2.03
2017-10-27T15:36:45.974Z,3.70
2017-10-27T15:39:13.570Z,3.75
2017-10-27T15:41:41.927Z,3.95
2017-10-27T15:44:09.605Z,4.72
2017-10-27T15:46:37.955Z,3.22
2017-10-27T15:49:05.534Z,2.85
2017-10-27T15:51:33.158Z,2.50
2017-10-27T15:54:00.739Z,3.10
2017-10-27T15:56:28.319Z,3.10
2017-10-27T15:58:56.709Z,2.50
2017-10-27T16:01:25.046Z,3.00
2017-10-27T16:03:52.622Z,4.43
2017-10-27T16:06:20.234Z,6.07
2017-10-27T16:08:47.807Z,4.43
2017-10-27T16:11:15.397Z,4.43
2017-10-27T16:13:42.994Z,3.35
2017-10-27T16:16:10.577Z,3.12
2017-10-27T16:18:38.239Z,3.45
2017-10-27T16:21:05.825Z,4.07
2017-10-27T16:23:33.402Z,4.03
2017-10-27T16:26:01.782Z,2.92
2017-10-27T16:28:30.927Z,2.70
2017-10-27T16:30:58.549Z,3.35
2017-10-27T16:33:28.178Z,2.50
2017-10-27T16:35:55.991Z,3.10
2017-10-27T16:38:23.565Z,2.30
2017-10-27T16:40:51.926Z,2.92
2017-10-27T16:43:20.022Z,2.20
2017-10-27T16:45:48.422Z,2.53
2017-10-27T16:48:16.016Z,2.55
2017-10-27T16:50:44.099Z,2.72
2017-10-27T16:53:11.698Z,2.58
2017-10-27T16:55:39.338Z,2.55
2017-10-27T16:58:07.741Z,2.08
2017-10-27T17:00:35.327Z,1.87
2017-10-27T17:03:02.953Z,2.45
2017-10-27T17:05:30.557Z,2.20
2017-10-27T17:07:58.137Z,2.72
2017-10-27T17:10:25.814Z,2.78
2017-10-27T17:12:54.244Z,1.90
2017-10-27T17:15:22.733Z,1.62
2017-10-27T17:17:50.713Z,2.25
2017-10-27T17:20:18.305Z,1.70
2017-10-27T17:22:46.728Z,2.10
2017-10-27T17:25:14.437Z,2.40
2017-10-27T17:27:42.858Z,2.30
2017-10-27T17:30:10.434Z,2.25
2017-10-27T17:32:38.142Z,1.92
2017-10-27T17:35:06.634Z,2.15
2017-10-27T17:37:34.486Z,2.22
2017-10-27T17:40:02.929Z,2.97
2017-10-27T17:42:30.522Z,1.65
2017-10-27T17:44:58.894Z,2.45
2017-10-27T17:47:27.258Z,2.30
2017-10-27T17:49:54.937Z,2.47
2017-10-27T17:52:23.389Z,1.92
2017-10-27T17:54:50.961Z,2.20
2017-10-27T17:57:18.641Z,3.08
2017-10-27T17:59:46.262Z,3.20
2017-10-27T18:02:13.838Z,4.05
2017-10-27T18:04:41.442Z,2.30
2017-10-27T18:07:09.081Z,2.35
2017-10-27T18:09:37.549Z,2.00
2017-10-27T18:12:05.934Z,2.60
2017-10-27T18:14:34.318Z,2.85
2017-10-27T18:17:02.799Z,5.40
2017-10-27T18:19:31.169Z,5.05
2017-10-27T18:21:59.515Z,2.30
2017-10-27T18:24:28.068Z,2.47
2017-10-27T18:26:55.786Z,2.03
2017-10-27T18:29:24.135Z,2.70
2017-10-27T18:31:51.731Z,2.60
2017-10-27T18:34:20.106Z,2.50
2017-10-27T18:36:48.553Z,2.60
2017-10-27T18:39:16.134Z,2.45
2017-10-27T18:41:44.511Z,2.80
2017-10-27T18:44:12.854Z,2.40
2017-10-27T18:46:40.502Z,3.05
2017-10-27T18:49:08.091Z,2.72
2017-10-27T18:51:37.988Z,2.80
2017-10-27T18:54:05.789Z,2.42
2017-10-27T18:56:34.585Z,3.08
2017-10-27T18:59:02.389Z,2.30
2017-10-27T19:01:29.974Z,3.20
2017-10-27T19:03:57.666Z,3.80
2017-10-27T19:06:26.033Z,3.67
2017-10-27T19:08:53.626Z,3.15
2017-10-27T19:11:21.229Z,4.22
2017-10-27T19:13:48.807Z,4.03
2017-10-27T19:16:17.149Z,2.70
2017-10-27T19:18:44.846Z,3.47
2017-10-27T19:21:13.202Z,3.10
2017-10-27T19:23:40.878Z,3.87
2017-10-27T19:26:08.481Z,3.65
2017-10-27T19:28:36.208Z,3.40
2017-10-27T19:31:04.582Z,2.75
2017-10-27T19:33:32.921Z,3.00
2017-10-27T19:36:00.547Z,3.60
2017-10-27T19:38:28.126Z,4.03
2017-10-27T19:40:55.715Z,3.87
2017-10-27T19:43:23.318Z,4.10
2017-10-27T19:45:50.890Z,5.28
2017-10-27T19:48:18.549Z,6.50
2017-10-27T19:50:46.125Z,6.70
2017-10-27T19:53:13.725Z,10.55
2017-10-27T19:55:41.394Z,8.20
2017-10-27T19:58:09.733Z,5.40
2017-10-27T20:00:37.359Z,6.78
2017-10-27T20:03:04.935Z,5.55
2017-10-27T20:05:32.554Z,3.70
2017-10-27T20:08:00.929Z,4.55
2017-10-27T20:10:29.313Z,4.50
2017-10-27T20:12:57.782Z,3.47
2017-10-27T20:15:26.161Z,3.12
2017-10-27T20:17:54.826Z,3.95
2017-10-27T20:20:22.614Z,3.55
2017-10-27T20:22:50.967Z,3.72
2017-10-27T20:25:19.415Z,3.58
2017-10-27T20:27:47.126Z,2.83
2017-10-27T20:30:15.574Z,2.90
2017-10-27T20:32:43.258Z,3.22
2017-10-27T20:35:11.642Z,2.95
2017-10-27T20:37:39.982Z,2.72
2017-10-27T20:40:07.678Z,2.83
2017-10-27T20:42:36.036Z,3.08
2017-10-27T20:45:03.668Z,2.85
2017-10-27T20:47:31.305Z,3.42
2017-10-27T20:49:58.928Z,4.47
2017-10-27T20:52:27.270Z,3.65
2017-10-27T20:54:55.084Z,2.33
2017-10-27T20:57:23.438Z,3.50
2017-10-27T20:59:51.116Z,2.95
2017-10-27T21:02:19.483Z,2.55
2017-10-27T21:04:47.846Z,3.45
2017-10-27T21:07:15.526Z,2.25
2017-10-27T21:09:43.871Z,2.67
2017-10-27T21:12:11.453Z,3.22
2017-10-27T21:14:39.994Z,2.90
2017-10-27T21:17:07.655Z,2.67
2017-10-27T21:19:35.528Z,3.72
2017-10-27T21:22:03.563Z,3.42
2017-10-27T21:24:31.179Z,2.60
2017-10-27T21:26:58.919Z,3.55
2017-10-27T21:29:26.762Z,3.55
2017-10-27T21:31:54.471Z,3.45
2017-10-27T21:34:22.135Z,3.45
2017-10-27T21:36:50.534Z,3.37
2017-10-27T21:39:19.181Z,3.97
2017-10-27T21:41:46.754Z,3.25
2017-10-27T21:44:15.166Z,3.67
2017-10-27T21:46:42.949Z,3.37
2017-10-27T21:49:10.529Z,3.97
2017-10-27T21:51:38.179Z,3.72
2017-10-27T21:54:05.762Z,4.53
2017-10-27T21:56:33.343Z,3.40
2017-10-27T21:59:01.830Z,5.28
2017-10-27T22:01:29.422Z,4.10
2017-10-27T22:03:57.002Z,4.28
2017-10-27T22:06:24.614Z,4.28
2017-10-27T22:08:52.954Z,3.15
2017-10-27T22:11:20.529Z,3.70
2017-10-27T22:13:48.153Z,4.07
2017-10-27T22:16:15.739Z,3.45
2017-10-27T22:18:43.343Z,4.00
2017-10-27T22:21:10.930Z,3.10
2017-10-27T22:23:39.300Z,3.85
2017-10-27T22:26:06.990Z,3.92
2017-10-27T22:28:34.622Z,3.55
